createdAt,value
2023-03-28T00:00:00.750Z,71
2023-03-28T00:01:07.821Z,71
2023-03-28T00:02:14.703Z,71
2023-03-28T00:03:21.478Z,71
2023-03-28T00:04:28.252Z,71
2023-03-28T00:05:35.041Z,71
2023-03-28T00:06:41.915Z,71
2023-03-28T00:07:48.772Z,71
2023-03-28T00:08:55.558Z,71
2023-03-28T00:10:02.428Z,71
2023-03-28T00:11:09.377Z,71
2023-03-28T00:12:16.192Z,71
2023-03-28T00:13:26.017Z,71
2023-03-28T00:14:32.940Z,71
2023-03-28T00:15:39.829Z,71
2023-03-28T00:16:46.577Z,71
2023-03-28T00:17:53.371Z,71
2023-03-28T00:19:00.141Z,71
2023-03-28T00:20:08.366Z,71
2023-03-28T00:21:14.272Z,72
2023-03-28T00:22:21.104Z,72
2023-03-28T00:23:27.879Z,73
2023-03-28T00:24:34.748Z,73
2023-03-28T00:25:41.694Z,73
2023-03-28T00:26:48.545Z,73
2023-03-28T00:27:55.337Z,73
2023-03-28T00:29:02.182Z,73
2023-03-28T00:30:09.024Z,73
2023-03-28T00:31:15.968Z,74
2023-03-28T00:32:22.841Z,74
2023-03-28T00:33:29.668Z,74
2023-03-28T00:34:36.449Z,74
2023-03-28T00:35:43.375Z,74
2023-03-28T00:36:50.244Z,74
2023-03-28T00:37:57.094Z,74
2023-03-28T00:39:04.014Z,74
2023-03-28T00:40:10.824Z,74
2023-03-28T00:41:17.688Z,74
2023-03-28T00:42:24.508Z,75
2023-03-28T00:43:31.391Z,74
2023-03-28T00:44:44.022Z,75
2023-03-28T00:46:06.455Z,75
2023-03-28T00:47:02.693Z,75
2023-03-28T00:48:14.003Z,75
2023-03-28T00:49:16.363Z,75
2023-03-28T00:50:23.163Z,75
2023-03-28T00:51:32.806Z,76
2023-03-28T00:52:42.489Z,76
2023-03-28T00:53:57.236Z,76
2023-03-28T00:55:04.102Z,76
2023-03-28T00:56:10.937Z,76
2023-03-28T00:57:47.529Z,76
2023-03-28T00:58:59.871Z,75
2023-03-28T01:00:06.726Z,76
2023-03-28T01:01:16.573Z,76
2023-03-28T01:02:23.483Z,76
2023-03-28T01:03:30.482Z,76
2023-03-28T01:04:37.160Z,76
2023-03-28T01:05:44.166Z,76
2023-03-28T01:06:50.937Z,76
2023-03-28T01:07:57.726Z,76
2023-03-28T01:09:09.618Z,76
2023-03-28T01:10:16.411Z,76
2023-03-28T01:11:23.348Z,76
2023-03-28T01:12:30.184Z,76
2023-03-28T01:13:37.012Z,76
2023-03-28T01:14:43.866Z,76
2023-03-28T01:15:50.644Z,76
2023-03-28T01:16:57.446Z,76
2023-03-28T01:18:04.320Z,76
2023-03-28T01:19:11.218Z,76
2023-03-28T01:20:23.102Z,77
2023-03-28T01:21:39.987Z,77
2023-03-28T01:22:56.151Z,77
2023-03-28T01:24:11.138Z,77
2023-03-28T01:25:21.046Z,76
2023-03-28T01:26:33.500Z,77
2023-03-28T01:27:50.397Z,77
2023-03-28T01:29:00.191Z,77
2023-03-28T01:30:17.147Z,77
2023-03-28T01:31:34.052Z,77
2023-03-28T01:32:51.061Z,77
2023-03-28T01:34:03.015Z,78
2023-03-28T01:35:17.945Z,79
2023-03-28T01:36:33.441Z,79
2023-03-28T01:37:44.736Z,78
2023-03-28T01:39:01.658Z,78
2023-03-28T01:40:18.653Z,78
2023-03-28T01:41:30.584Z,78
2023-03-28T01:42:42.419Z,77
2023-03-28T01:43:54.787Z,77
2023-03-28T01:45:04.506Z,77
2023-03-28T01:46:16.444Z,77
2023-03-28T01:47:25.956Z,78
2023-03-28T01:48:37.824Z,78
2023-03-28T01:49:49.633Z,78
2023-03-28T01:51:02.463Z,77
2023-03-28T01:52:17.107Z,77
2023-03-28T01:53:34.041Z,77
2023-03-28T01:54:45.940Z,77
2023-03-28T01:56:03.028Z,77
2023-03-28T01:57:20.033Z,77
2023-03-28T01:58:29.487Z,77
2023-03-28T01:59:46.645Z,77
2023-03-28T02:01:01.130Z,77
2023-03-28T02:02:13.577Z,77
2023-03-28T02:03:30.546Z,77
2023-03-28T02:04:40.023Z,77
2023-03-28T02:05:46.850Z,77
2023-03-28T02:06:53.628Z,77
2023-03-28T02:08:00.443Z,77
2023-03-28T02:09:07.254Z,77
2023-03-28T02:10:14.138Z,77
2023-03-28T02:11:20.987Z,77
2023-03-28T02:12:27.853Z,77
2023-03-28T02:13:34.592Z,77
2023-03-28T02:14:46.445Z,77
2023-03-28T02:15:53.334Z,77
2023-03-28T02:17:00.101Z,77
2023-03-28T02:18:07.011Z,77
2023-03-28T02:19:18.739Z,77
2023-03-28T02:20:25.580Z,78
2023-03-28T02:21:32.509Z,78
2023-03-28T02:22:44.374Z,78
2023-03-28T02:23:56.232Z,77
2023-03-28T02:25:03.086Z,77
2023-03-28T02:26:10.061Z,77
2023-03-28T02:27:16.850Z,77
2023-03-28T02:28:23.695Z,77
2023-03-28T02:29:30.499Z,77
2023-03-28T02:30:37.264Z,77
2023-03-28T02:31:44.125Z,77
2023-03-28T02:32:51.054Z,77
2023-03-28T02:34:02.882Z,77
2023-03-28T02:35:09.776Z,77
2023-03-28T02:36:16.571Z,77
2023-03-28T02:37:33.485Z,77
2023-03-28T02:38:45.354Z,77
2023-03-28T02:39:57.212Z,77
2023-03-28T02:41:11.789Z,77
2023-03-28T02:42:26.386Z,77
2023-03-28T02:43:43.353Z,77
2023-03-28T02:44:55.182Z,76
2023-03-28T02:46:07.172Z,76
2023-03-28T02:47:24.142Z,76
2023-03-28T02:48:36.031Z,76
2023-03-28T02:49:51.058Z,76
2023-03-28T02:51:05.201Z,76
2023-03-28T02:52:11.997Z,76
2023-03-28T02:53:28.943Z,76
2023-03-28T02:54:41.101Z,76
2023-03-28T02:55:52.950Z,76
2023-03-28T02:57:02.349Z,76
2023-03-28T02:58:14.214Z,76
2023-03-28T02:59:26.041Z,76
2023-03-28T03:00:32.899Z,76
2023-03-28T03:01:39.719Z,76
2023-03-28T03:02:46.706Z,76
2023-03-28T03:03:54.446Z,76
2023-03-28T03:05:00.311Z,76
2023-03-28T03:06:07.218Z,76
2023-03-28T03:07:14.070Z,75
2023-03-28T03:08:20.939Z,75
2023-03-28T03:09:27.903Z,75
2023-03-28T03:10:34.751Z,75
2023-03-28T03:11:41.561Z,75
2023-03-28T03:12:48.402Z,75
2023-03-28T03:13:55.198Z,75
2023-03-28T03:15:02.069Z,75
2023-03-28T03:16:09.170Z,75
2023-03-28T03:17:15.922Z,75
2023-03-28T03:18:22.787Z,75
2023-03-28T03:19:29.642Z,75
2023-03-28T03:20:36.533Z,75
2023-03-28T03:21:43.421Z,75
2023-03-28T03:22:50.202Z,75
2023-03-28T03:23:59.984Z,75
2023-03-28T03:25:06.956Z,75
2023-03-28T03:26:14.077Z,74
2023-03-28T03:27:21.004Z,74
2023-03-28T03:28:27.831Z,74
2023-03-28T03:29:38.331Z,74
2023-03-28T03:30:41.675Z,74
2023-03-28T03:31:48.420Z,74
2023-03-28T03:32:55.303Z,74
2023-03-28T03:34:02.164Z,74
2023-03-28T03:35:08.930Z,74
2023-03-28T03:36:15.776Z,74
2023-03-28T03:37:22.575Z,74
2023-03-28T03:38:29.558Z,74
2023-03-28T03:39:36.449Z,74
2023-03-28T03:40:43.268Z,74
2023-03-28T03:41:50.013Z,74
2023-03-28T03:42:56.812Z,74
2023-03-28T03:44:03.638Z,74
2023-03-28T03:45:10.514Z,74
2023-03-28T03:46:17.329Z,74
2023-03-28T03:47:24.191Z,73
2023-03-28T03:48:30.912Z,73
2023-03-28T03:49:37.715Z,73
2023-03-28T03:50:44.513Z,73
2023-03-28T03:51:51.335Z,73
2023-03-28T03:52:58.119Z,73
2023-03-28T03:54:04.914Z,73
2023-03-28T03:55:11.663Z,73
2023-03-28T03:56:18.549Z,73
2023-03-28T03:57:25.375Z,73
2023-03-28T03:58:32.290Z,73
2023-03-28T03:59:39.057Z,73
2023-03-28T04:00:45.940Z,73
2023-03-28T04:01:52.912Z,73
2023-03-28T04:02:59.735Z,73
2023-03-28T04:04:06.572Z,73
2023-03-28T04:05:13.320Z,73
2023-03-28T04:06:20.144Z,72
2023-03-28T04:07:27.080Z,72
2023-03-28T04:08:33.985Z,72
2023-03-28T04:09:40.855Z,72
2023-03-28T04:10:47.691Z,72
2023-03-28T04:11:54.526Z,72
2023-03-28T04:13:01.331Z,72
2023-03-28T04:14:08.333Z,72
2023-03-28T04:15:15.144Z,73
2023-03-28T04:16:21.893Z,73
2023-03-28T04:17:28.819Z,73
2023-03-28T04:18:35.532Z,74
2023-03-28T04:19:42.354Z,74
2023-03-28T04:20:49.171Z,74
2023-03-28T04:21:55.966Z,75
2023-03-28T04:23:02.757Z,76
2023-03-28T04:24:09.532Z,77
2023-03-28T04:25:16.404Z,78
2023-03-28T04:26:23.174Z,79
2023-03-28T04:27:29.996Z,80
2023-03-28T04:28:36.794Z,81
2023-03-28T04:29:43.551Z,81
2023-03-28T04:30:50.475Z,82
2023-03-28T04:31:57.422Z,82
2023-03-28T04:33:04.210Z,82
2023-03-28T04:34:10.879Z,82
2023-03-28T04:35:17.674Z,83
2023-03-28T04:36:24.571Z,85
2023-03-28T04:37:31.482Z,85
2023-03-28T04:38:38.266Z,85
2023-03-28T04:39:45.096Z,85
2023-03-28T04:40:51.880Z,85
2023-03-28T04:41:58.810Z,85
2023-03-28T04:43:05.616Z,85
2023-03-28T04:44:12.407Z,85
2023-03-28T04:45:19.169Z,85
2023-03-28T04:46:26.068Z,85
2023-03-28T04:47:32.834Z,85
2023-03-28T04:48:42.692Z,85
2023-03-28T04:49:49.552Z,84
2023-03-28T04:50:56.328Z,84
2023-03-28T04:52:03.107Z,84
2023-03-28T04:53:09.932Z,85
2023-03-28T04:54:16.705Z,85
2023-03-28T04:55:23.573Z,85
2023-03-28T04:56:30.422Z,85
2023-03-28T04:57:37.219Z,86
2023-03-28T04:58:44.041Z,85
2023-03-28T04:59:50.829Z,85
2023-03-28T05:00:58.000Z,85
2023-03-28T05:02:07.408Z,85
2023-03-28T05:03:14.270Z,86
2023-03-28T05:04:23.944Z,85
2023-03-28T05:05:30.778Z,85
2023-03-28T05:06:37.585Z,85
2023-03-28T05:07:44.477Z,85
2023-03-28T05:08:51.420Z,85
2023-03-28T05:09:58.419Z,85
2023-03-28T05:11:05.236Z,84
2023-03-28T05:12:12.052Z,84
2023-03-28T05:13:18.890Z,84
2023-03-28T05:14:25.832Z,84
2023-03-28T05:15:32.658Z,84
2023-03-28T05:16:39.520Z,84
2023-03-28T05:17:46.408Z,84
2023-03-28T05:18:53.248Z,84
2023-03-28T05:20:00.442Z,85
2023-03-28T05:21:07.509Z,84
2023-03-28T05:22:14.321Z,85
2023-03-28T05:23:21.252Z,84
2023-03-28T05:24:28.246Z,85
2023-03-28T05:25:35.098Z,84
2023-03-28T05:26:41.888Z,84
2023-03-28T05:27:48.732Z,84
2023-03-28T05:28:55.633Z,84
2023-03-28T05:30:02.475Z,84
2023-03-28T05:31:09.675Z,84
2023-03-28T05:32:16.533Z,84
2023-03-28T05:33:23.424Z,84
2023-03-28T05:34:30.195Z,84
2023-03-28T05:35:37.111Z,84
2023-03-28T05:36:43.957Z,84
2023-03-28T05:37:50.907Z,84
2023-03-28T05:38:57.866Z,84
2023-03-28T05:40:04.677Z,84
2023-03-28T05:41:11.785Z,84
2023-03-28T05:42:18.634Z,84
2023-03-28T05:43:25.495Z,84
2023-03-28T05:44:32.457Z,84
2023-03-28T05:45:39.370Z,84
2023-03-28T05:46:46.202Z,85
2023-03-28T05:47:53.077Z,84
2023-03-28T05:48:59.844Z,84
2023-03-28T05:50:06.759Z,84
2023-03-28T05:51:13.704Z,83
2023-03-28T05:52:20.502Z,83
2023-03-28T05:53:27.411Z,83
2023-03-28T05:54:34.263Z,82
2023-03-28T05:55:41.143Z,81
2023-03-28T05:56:48.139Z,81
2023-03-28T05:57:55.359Z,81
2023-03-28T05:59:02.317Z,81
2023-03-28T06:00:09.258Z,81
2023-03-28T06:01:16.314Z,82
2023-03-28T06:02:23.268Z,81
2023-03-28T06:03:30.103Z,81
2023-03-28T06:04:37.067Z,80
2023-03-28T06:05:43.943Z,80
2023-03-28T06:06:50.960Z,80
2023-03-28T06:07:57.712Z,80
2023-03-28T06:09:04.653Z,80
2023-03-28T06:10:11.556Z,80
2023-03-28T06:11:18.417Z,80
2023-03-28T06:12:25.264Z,79
2023-03-28T06:13:32.189Z,80
2023-03-28T06:14:39.132Z,79
2023-03-28T06:15:45.988Z,79
2023-03-28T06:16:52.928Z,79
2023-03-28T06:17:59.753Z,78
2023-03-28T06:19:17.020Z,79
2023-03-28T06:20:13.433Z,79
2023-03-28T06:21:20.369Z,79
2023-03-28T06:22:27.234Z,79
2023-03-28T06:23:34.107Z,79
2023-03-28T06:24:40.936Z,79
2023-03-28T06:25:47.828Z,79
2023-03-28T06:26:54.696Z,79
2023-03-28T06:28:01.524Z,80
2023-03-28T06:29:08.432Z,80
2023-03-28T06:30:15.275Z,80
2023-03-28T06:31:22.200Z,80
2023-03-28T06:32:29.077Z,80
2023-03-28T06:33:35.950Z,79
2023-03-28T06:34:45.402Z,79
2023-03-28T06:35:52.286Z,80
2023-03-28T06:36:59.097Z,80
2023-03-28T06:38:06.044Z,80
2023-03-28T06:39:12.934Z,80
2023-03-28T06:40:19.810Z,80
2023-03-28T06:41:26.590Z,80
2023-03-28T06:42:33.513Z,81
2023-03-28T06:43:41.912Z,81
2023-03-28T06:44:48.903Z,81
2023-03-28T06:45:55.906Z,84
2023-03-28T06:47:02.799Z,85
2023-03-28T06:48:09.668Z,86
2023-03-28T06:49:16.459Z,86
2023-03-28T06:50:23.321Z,86
2023-03-28T06:51:30.236Z,87
2023-03-28T06:52:37.075Z,87
2023-03-28T06:53:43.959Z,88
2023-03-28T06:54:50.730Z,88
2023-03-28T06:55:57.632Z,88
2023-03-28T06:57:04.624Z,88
2023-03-28T06:58:11.583Z,88
2023-03-28T06:59:18.360Z,88
2023-03-28T07:00:25.284Z,88
2023-03-28T07:01:32.163Z,88
2023-03-28T07:02:39.059Z,88
2023-03-28T07:03:46.076Z,88
2023-03-28T07:04:52.655Z,87
2023-03-28T07:05:59.473Z,88
2023-03-28T07:07:09.588Z,88
2023-03-28T07:08:16.310Z,88
2023-03-28T07:09:23.186Z,88
2023-03-28T07:10:30.031Z,88
2023-03-28T07:11:36.886Z,88
2023-03-28T07:12:43.745Z,88
2023-03-28T07:13:50.564Z,88
2023-03-28T07:14:57.490Z,88
2023-03-28T07:16:04.414Z,88
2023-03-28T07:17:11.478Z,88
2023-03-28T07:18:18.382Z,88
2023-03-28T07:19:25.186Z,87
2023-03-28T07:20:32.025Z,86
2023-03-28T07:21:38.910Z,86
2023-03-28T07:22:45.826Z,86
2023-03-28T07:23:52.762Z,85
2023-03-28T07:24:59.659Z,85
2023-03-28T07:26:06.342Z,85
2023-03-28T07:27:15.961Z,84
2023-03-28T07:28:20.070Z,84
2023-03-28T07:29:26.864Z,84
2023-03-28T07:30:33.742Z,84
2023-03-28T07:31:40.566Z,83
2023-03-28T07:32:54.513Z,83
2023-03-28T07:33:54.299Z,83
2023-03-28T07:35:01.166Z,83
2023-03-28T07:36:08.261Z,83
2023-03-28T07:37:17.718Z,82
2023-03-28T07:38:24.574Z,82
2023-03-28T07:39:31.422Z,81
2023-03-28T07:40:38.494Z,80
2023-03-28T07:41:45.321Z,80
2023-03-28T07:42:52.110Z,78
2023-03-28T07:43:58.917Z,78
2023-03-28T07:45:05.730Z,77
2023-03-28T07:46:12.796Z,77
2023-03-28T07:47:19.757Z,78
2023-03-28T07:48:26.598Z,77
2023-03-28T07:49:33.481Z,76
2023-03-28T07:50:40.311Z,76
2023-03-28T07:51:47.237Z,76
2023-03-28T07:52:54.153Z,76
2023-03-28T07:54:01.110Z,75
2023-03-28T07:55:07.923Z,74
2023-03-28T07:56:14.841Z,74
2023-03-28T07:57:21.894Z,74
2023-03-28T07:58:28.817Z,74
2023-03-28T07:59:35.807Z,74
2023-03-28T08:00:42.714Z,74
2023-03-28T08:01:49.598Z,74
2023-03-28T08:02:56.638Z,73
2023-03-28T08:04:03.759Z,73
2023-03-28T08:05:10.391Z,74
2023-03-28T08:06:31.342Z,74
2023-03-28T08:07:24.094Z,75
2023-03-28T08:08:30.973Z,75
2023-03-28T08:09:37.893Z,75
2023-03-28T08:10:44.721Z,75
2023-03-28T08:11:51.674Z,75
2023-03-28T08:12:58.469Z,75
2023-03-28T08:14:05.428Z,75
2023-03-28T08:15:12.373Z,75
2023-03-28T08:16:19.337Z,75
2023-03-28T08:17:26.183Z,75
2023-03-28T08:18:33.026Z,75
2023-03-28T08:19:39.889Z,75
2023-03-28T08:20:46.935Z,76
2023-03-28T08:21:53.756Z,75
2023-03-28T08:23:00.557Z,74
2023-03-28T08:24:07.508Z,74
2023-03-28T08:25:14.413Z,74
2023-03-28T08:26:21.234Z,74
2023-03-28T08:27:28.069Z,74
2023-03-28T08:28:34.834Z,74
2023-03-28T08:29:41.608Z,74
2023-03-28T08:30:48.523Z,75
2023-03-28T08:32:05.111Z,75
2023-03-28T08:33:11.911Z,73
2023-03-28T08:34:18.699Z,72
2023-03-28T08:35:25.563Z,73
2023-03-28T08:36:32.369Z,73
2023-03-28T08:37:39.230Z,73
2023-03-28T08:38:46.001Z,73
2023-03-28T08:39:55.478Z,73
2023-03-28T08:41:02.416Z,73
2023-03-28T08:42:17.197Z,73
2023-03-28T08:43:23.962Z,73
2023-03-28T08:44:38.734Z,74
2023-03-28T08:45:48.398Z,74
2023-03-28T08:46:55.206Z,75
2023-03-28T08:48:02.038Z,74
2023-03-28T08:49:13.919Z,74
2023-03-28T08:50:20.811Z,74
2023-03-28T08:51:32.602Z,73
2023-03-28T08:52:39.551Z,72
2023-03-28T08:53:46.346Z,72
2023-03-28T08:54:53.204Z,73
2023-03-28T08:55:59.955Z,72
2023-03-28T08:57:06.759Z,72
2023-03-28T08:58:13.859Z,73
2023-03-28T08:59:20.776Z,73
2023-03-28T09:00:32.650Z,73
2023-03-28T09:01:39.873Z,73
2023-03-28T09:02:49.183Z,74
2023-03-28T09:03:54.688Z,75
2023-03-28T09:05:12.300Z,74
2023-03-28T09:06:08.554Z,73
2023-03-28T09:07:20.383Z,73
2023-03-28T09:08:37.315Z,73
2023-03-28T09:09:49.228Z,72
2023-03-28T09:11:06.100Z,71
2023-03-28T09:12:20.770Z,72
2023-03-28T09:13:32.685Z,71
2023-03-28T09:14:39.563Z,70
2023-03-28T09:15:49.291Z,70
2023-03-28T09:17:03.941Z,69
2023-03-28T09:18:18.748Z,68
2023-03-28T09:19:37.287Z,69
2023-03-28T09:20:37.439Z,68
2023-03-28T09:22:02.270Z,68
2023-03-28T09:23:11.415Z,68
2023-03-28T09:24:28.383Z,68
2023-03-28T09:25:45.446Z,68
2023-03-28T09:26:52.362Z,69
2023-03-28T09:28:04.274Z,70
2023-03-28T09:29:16.213Z,70
2023-03-28T09:30:25.908Z,70
2023-03-28T09:31:32.698Z,70
2023-03-28T09:32:44.690Z,72
2023-03-28T09:33:51.426Z,73
2023-03-28T09:34:58.286Z,73
2023-03-28T09:36:05.171Z,73
2023-03-28T09:37:12.068Z,75
2023-03-28T09:38:24.516Z,76
2023-03-28T09:39:36.780Z,77
2023-03-28T09:40:43.641Z,78
2023-03-28T09:41:50.555Z,80
2023-03-28T09:43:00.402Z,81
2023-03-28T09:44:15.398Z,82
2023-03-28T09:45:22.176Z,82
2023-03-28T09:46:39.123Z,83
2023-03-28T09:47:45.999Z,83
2023-03-28T09:48:52.994Z,83
2023-03-28T09:50:10.007Z,83
2023-03-28T09:51:06.636Z,82
2023-03-28T09:52:16.464Z,82
2023-03-28T09:53:23.297Z,82
2023-03-28T09:54:30.206Z,80
2023-03-28T09:55:37.029Z,78
2023-03-28T09:56:43.851Z,77
2023-03-28T09:57:50.624Z,77
2023-03-28T09:59:02.517Z,75
2023-03-28T10:00:09.382Z,74
2023-03-28T10:01:16.685Z,74
2023-03-28T10:02:31.171Z,71
2023-03-28T10:03:37.899Z,70
2023-03-28T10:04:44.744Z,71
2023-03-28T10:05:51.548Z,69
2023-03-28T10:06:58.469Z,69
2023-03-28T10:08:12.894Z,71
2023-03-28T10:09:27.597Z,71
2023-03-28T10:10:34.386Z,72
2023-03-28T10:11:41.261Z,73
2023-03-28T10:12:48.102Z,76
2023-03-28T10:13:54.876Z,81
2023-03-28T10:15:01.778Z,84
2023-03-28T10:16:08.942Z,85
2023-03-28T10:17:15.611Z,84
2023-03-28T10:18:32.500Z,84
2023-03-28T10:19:39.215Z,84
2023-03-28T10:20:46.014Z,84
2023-03-28T10:21:52.817Z,85
2023-03-28T10:23:00.652Z,84
2023-03-28T10:24:06.593Z,84
2023-03-28T10:25:16.220Z,84
2023-03-28T10:26:23.054Z,83
2023-03-28T10:27:29.836Z,82
2023-03-28T10:28:36.654Z,79
2023-03-28T10:29:43.571Z,80
2023-03-28T10:30:50.357Z,79
2023-03-28T10:31:57.240Z,79
2023-03-28T10:33:04.051Z,77
2023-03-28T10:34:13.722Z,77
2023-03-28T10:35:26.469Z,74
2023-03-28T10:36:32.356Z,74
2023-03-28T10:37:39.221Z,75
2023-03-28T10:38:46.106Z,74
2023-03-28T10:39:52.964Z,75
2023-03-28T10:41:07.350Z,78
2023-03-28T10:42:14.291Z,79
2023-03-28T10:43:21.157Z,79
2023-03-28T10:44:27.976Z,81
2023-03-28T10:45:34.804Z,84
2023-03-28T10:46:41.643Z,83
2023-03-28T10:47:48.479Z,83
2023-03-28T10:48:55.295Z,82
2023-03-28T10:50:02.263Z,81
2023-03-28T10:51:09.181Z,81
2023-03-28T10:52:15.957Z,79
2023-03-28T10:53:32.963Z,79
2023-03-28T10:54:45.006Z,85
2023-03-28T10:55:58.164Z,85
2023-03-28T10:57:08.861Z,86
2023-03-28T10:58:18.275Z,85
2023-03-28T10:59:27.987Z,85
2023-03-28T11:00:39.985Z,85
2023-03-28T11:01:51.931Z,84
2023-03-28T11:03:04.874Z,84
2023-03-28T11:04:21.741Z,84
2023-03-28T11:05:31.076Z,84
2023-03-28T11:06:45.959Z,83
2023-03-28T11:07:55.657Z,83
2023-03-28T11:09:07.619Z,81
2023-03-28T11:10:20.536Z,80
2023-03-28T11:11:27.374Z,77
2023-03-28T11:12:53.920Z,77
2023-03-28T11:13:53.848Z,76
2023-03-28T11:15:08.745Z,71
2023-03-28T11:16:23.441Z,71
2023-03-28T11:17:38.303Z,66
2023-03-28T11:18:50.345Z,65
2023-03-28T11:20:07.255Z,65
2023-03-28T11:21:21.859Z,63
2023-03-28T11:22:34.572Z,64
2023-03-28T11:23:44.299Z,64
2023-03-28T11:25:01.640Z,63
2023-03-28T11:26:18.555Z,62
2023-03-28T11:27:30.501Z,62
2023-03-28T11:28:47.550Z,59
2023-03-28T11:29:59.496Z,60
2023-03-28T11:31:08.966Z,64
2023-03-28T11:32:15.842Z,69
2023-03-28T11:33:25.529Z,73
2023-03-28T11:34:35.011Z,78
2023-03-28T11:35:49.908Z,80
2023-03-28T11:36:56.812Z,83
2023-03-28T11:38:08.596Z,84
2023-03-28T11:39:20.447Z,84
2023-03-28T11:40:29.939Z,85
2023-03-28T11:41:42.413Z,85
2023-03-28T11:42:49.184Z,84
2023-03-28T11:43:58.938Z,84
2023-03-28T11:45:10.802Z,83
2023-03-28T11:46:27.810Z,83
2023-03-28T11:47:34.630Z,80
2023-03-28T11:48:41.472Z,79
2023-03-28T11:49:56.403Z,76
2023-03-28T11:51:11.275Z,76
2023-03-28T11:52:21.155Z,77
2023-03-28T11:53:30.687Z,77
2023-03-28T11:54:45.508Z,76
2023-03-28T11:55:57.496Z,78
2023-03-28T11:57:06.877Z,78
2023-03-28T11:58:21.398Z,79
2023-03-28T11:59:28.265Z,80
2023-03-28T12:00:41.807Z,79
2023-03-28T12:01:49.560Z,79
2023-03-28T12:03:01.628Z,79
2023-03-28T12:04:16.505Z,79
2023-03-28T12:05:23.373Z,80
2023-03-28T12:06:35.297Z,81
2023-03-28T12:07:49.880Z,81
2023-03-28T12:09:06.889Z,82
2023-03-28T12:10:13.670Z,83
2023-03-28T12:11:30.607Z,82
2023-03-28T12:12:37.449Z,81
2023-03-28T12:15:03.997Z,80
2023-03-28T12:16:11.123Z,78
2023-03-28T12:17:20.685Z,76
2023-03-28T12:18:27.479Z,75
2023-03-28T12:19:42.275Z,75
2023-03-28T12:20:49.173Z,74
2023-03-28T12:21:55.948Z,74
2023-03-28T12:23:02.745Z,74
2023-03-28T12:24:17.387Z,73
2023-03-28T12:25:26.983Z,71
2023-03-28T12:26:36.371Z,70
2023-03-28T12:27:53.485Z,69
2023-03-28T12:29:08.524Z,69
2023-03-28T12:30:18.138Z,69
2023-03-28T12:31:27.966Z,69
2023-03-28T12:32:34.784Z,70
2023-03-28T12:33:44.263Z,72
2023-03-28T12:34:56.144Z,79
2023-03-28T12:36:08.017Z,85
2023-03-28T12:37:19.953Z,86
2023-03-28T12:38:32.642Z,86
2023-03-28T12:39:49.529Z,87
2023-03-28T12:41:04.462Z,87
2023-03-28T12:42:11.306Z,87
2023-03-28T12:43:18.155Z,87
2023-03-28T12:44:24.945Z,88
2023-03-28T12:45:31.729Z,87
2023-03-28T12:46:41.584Z,88
2023-03-28T12:47:48.448Z,87
2023-03-28T12:48:55.239Z,86
2023-03-28T12:50:02.079Z,86
2023-03-28T12:51:08.888Z,85
2023-03-28T12:52:21.131Z,84
2023-03-28T12:53:27.932Z,84
2023-03-28T12:54:34.778Z,83
2023-03-28T12:55:51.696Z,83
2023-03-28T12:56:58.509Z,83
2023-03-28T12:58:05.315Z,83
2023-03-28T12:59:17.142Z,82
2023-03-28T13:00:36.121Z,79
2023-03-28T13:01:48.979Z,73
2023-03-28T13:02:55.841Z,72
2023-03-28T13:04:07.756Z,72
2023-03-28T13:05:16.071Z,70
2023-03-28T13:06:24.099Z,70
2023-03-28T13:07:33.569Z,68
2023-03-28T13:08:50.606Z,66
2023-03-28T13:10:02.528Z,65
2023-03-28T13:11:19.449Z,66
2023-03-28T13:12:31.327Z,67
2023-03-28T13:13:43.198Z,69
2023-03-28T13:14:57.732Z,78
2023-03-28T13:16:12.335Z,80
2023-03-28T13:17:19.056Z,78
2023-03-28T13:18:30.902Z,77
2023-03-28T13:19:37.701Z,76
2023-03-28T13:20:47.348Z,75
2023-03-28T13:21:54.158Z,71
2023-03-28T13:23:00.996Z,70
2023-03-28T13:24:10.517Z,69
2023-03-28T13:25:27.508Z,68
2023-03-28T13:26:34.222Z,67
2023-03-28T13:27:51.184Z,66
2023-03-28T13:29:03.120Z,67
2023-03-28T13:30:10.001Z,64
2023-03-28T13:31:22.123Z,64
2023-03-28T13:32:28.846Z,64
2023-03-28T13:33:35.662Z,65
2023-03-28T13:34:42.729Z,64
2023-03-28T13:35:49.599Z,62
2023-03-28T13:37:01.464Z,63
2023-03-28T13:38:18.425Z,63
2023-03-28T13:39:28.201Z,62
2023-03-28T13:40:35.089Z,63
2023-03-28T13:41:47.149Z,63
2023-03-28T13:42:54.033Z,63
2023-03-28T13:44:00.867Z,62
2023-03-28T13:45:13.223Z,62
2023-03-28T13:46:25.312Z,62
2023-03-28T13:47:37.237Z,62
2023-03-28T13:48:44.082Z,63
2023-03-28T13:49:56.017Z,65
2023-03-28T13:51:12.850Z,73
2023-03-28T13:52:22.262Z,76
2023-03-28T13:53:37.576Z,81
2023-03-28T13:54:35.899Z,84
2023-03-28T13:55:42.844Z,85
2023-03-28T13:56:49.727Z,86
2023-03-28T13:57:56.448Z,86
2023-03-28T13:59:03.180Z,86
2023-03-28T14:00:10.112Z,86
2023-03-28T14:01:17.311Z,86
2023-03-28T14:02:24.153Z,86
2023-03-28T14:03:40.949Z,85
2023-03-28T14:04:45.662Z,85
2023-03-28T14:05:57.532Z,85
2023-03-28T14:07:04.326Z,83
2023-03-28T14:08:11.236Z,82
2023-03-28T14:09:18.031Z,82
2023-03-28T14:10:24.904Z,82
2023-03-28T14:11:36.809Z,82
2023-03-28T14:12:43.556Z,82
2023-03-28T14:13:50.357Z,82
2023-03-28T14:14:57.210Z,80
2023-03-28T14:16:04.036Z,80
2023-03-28T14:17:10.971Z,80
2023-03-28T14:18:17.748Z,79
2023-03-28T14:19:29.684Z,79
2023-03-28T14:20:40.464Z,78
2023-03-28T14:21:46.405Z,78
2023-03-28T14:23:00.164Z,78
2023-03-28T14:24:00.132Z,80
2023-03-28T14:25:09.655Z,83
2023-03-28T14:26:16.562Z,84
2023-03-28T14:27:23.426Z,84
2023-03-28T14:28:35.466Z,84
2023-03-28T14:29:42.356Z,83
2023-03-28T14:30:54.243Z,81
2023-03-28T14:32:01.162Z,81
2023-03-28T14:33:07.981Z,81
2023-03-28T14:34:14.849Z,79
2023-03-28T14:35:24.429Z,78
2023-03-28T14:36:31.346Z,77
2023-03-28T14:37:38.011Z,77
2023-03-28T14:38:49.844Z,75
2023-03-28T14:39:56.644Z,75
2023-03-28T14:41:03.525Z,74
2023-03-28T14:42:15.416Z,72
2023-03-28T14:43:22.266Z,72
2023-03-28T14:44:28.988Z,71
2023-03-28T14:45:35.933Z,71
2023-03-28T14:46:42.824Z,70
2023-03-28T14:47:49.792Z,69
2023-03-28T14:48:56.526Z,69
2023-03-28T14:50:03.343Z,69
2023-03-28T14:51:10.444Z,68
2023-03-28T14:52:17.355Z,68
2023-03-28T14:53:29.284Z,69
2023-03-28T14:54:41.136Z,68
2023-03-28T14:55:48.004Z,67
2023-03-28T14:56:54.974Z,66
2023-03-28T14:58:01.752Z,66
2023-03-28T14:59:08.636Z,65
2023-03-28T15:00:15.507Z,64
2023-03-28T15:01:25.146Z,64
2023-03-28T15:02:32.018Z,63
2023-03-28T15:03:39.258Z,63
2023-03-28T15:04:45.716Z,61
2023-03-28T15:05:52.514Z,61
2023-03-28T15:06:59.300Z,62
2023-03-28T15:08:06.166Z,62
2023-03-28T15:09:13.078Z,62
2023-03-28T15:10:29.983Z,63
2023-03-28T15:11:36.796Z,63
2023-03-28T15:12:43.608Z,65
2023-03-28T15:13:50.490Z,70
2023-03-28T15:15:02.396Z,74
2023-03-28T15:16:09.550Z,75
2023-03-28T15:17:21.385Z,75
2023-03-28T15:18:28.296Z,77
2023-03-28T15:19:35.123Z,77
2023-03-28T15:20:41.919Z,78
2023-03-28T15:21:48.848Z,78
2023-03-28T15:22:58.373Z,79
2023-03-28T15:24:05.149Z,79
2023-03-28T15:25:14.819Z,78
2023-03-28T15:26:21.814Z,78
2023-03-28T15:27:33.708Z,78
2023-03-28T15:28:40.628Z,79
2023-03-28T15:29:47.406Z,79
2023-03-28T15:30:54.309Z,79
2023-03-28T15:32:01.123Z,78
2023-03-28T15:33:11.092Z,78
2023-03-28T15:34:20.462Z,78
2023-03-28T15:35:28.451Z,78
2023-03-28T15:36:35.291Z,78
2023-03-28T15:37:42.216Z,78
2023-03-28T15:38:49.096Z,78
2023-03-28T15:40:03.971Z,79
2023-03-28T15:41:21.024Z,79
2023-03-28T15:42:27.797Z,79
2023-03-28T15:43:37.154Z,79
2023-03-28T15:44:43.969Z,79
2023-03-28T15:45:55.864Z,79
2023-03-28T15:47:02.643Z,79
2023-03-28T15:48:09.396Z,80
2023-03-28T15:49:18.863Z,80
2023-03-28T15:50:25.877Z,80
2023-03-28T15:51:35.738Z,80
2023-03-28T15:52:45.509Z,81
2023-03-28T15:53:52.398Z,82
2023-03-28T15:54:59.166Z,82
2023-03-28T15:56:06.021Z,82
2023-03-28T15:57:15.463Z,82
2023-03-28T15:58:25.366Z,82
2023-03-28T15:59:32.145Z,82
2023-03-28T16:00:39.108Z,82
2023-03-28T16:01:48.550Z,82
2023-03-28T16:02:55.447Z,82
2023-03-28T16:04:02.189Z,82
2023-03-28T16:05:19.139Z,82
2023-03-28T16:06:32.001Z,82
2023-03-28T16:07:32.754Z,81
2023-03-28T16:08:44.800Z,80
2023-03-28T16:09:51.613Z,79
2023-03-28T16:10:58.430Z,79
2023-03-28T16:12:05.260Z,79
2023-03-28T16:13:12.135Z,80
2023-03-28T16:14:18.945Z,79
2023-03-28T16:15:25.729Z,79
2023-03-28T16:16:32.677Z,79
2023-03-28T16:17:39.471Z,79
2023-03-28T16:18:46.325Z,79
2023-03-28T16:19:53.123Z,78